Time;durP1;ratioP1;P1;durP2;ratioP2;P2;SDS_P1;SDS_P2;PMS_P1;PMS_P2;Temp;Humidity;BMP_temperature;BMP_pressure;BME280_temperature;BME280_humidity;BME280_pressure;Samples;Min_cycle;Max_cycle;Signal;HPM_P1;HPM_P2
2021/07/16 00:02:12;;;;;;;1.20;1.10;;;17.20;98.00;;;;;;5111773;28;21119;-68
2021/07/16 00:04:40;;;;;;;1.40;1.30;;;17.20;98.00;;;;;;5111658;28;20521;-67
2021/07/16 00:07:07;;;;;;;1.20;1.00;;;17.20;98.00;;;;;;5111761;28;20515;-67
2021/07/16 00:09:34;;;;;;;1.30;1.27;;;17.10;98.00;;;;;;5111701;28;20516;-67
2021/07/16 00:12:01;;;;;;;1.20;1.20;;;17.00;98.00;;;;;;5111748;28;20458;-68
2021/07/16 00:14:28;;;;;;;1.20;1.20;;;17.10;98.00;;;;;;5110293;28;20455;-67
2021/07/16 00:16:55;;;;;;;1.13;1.00;;;17.00;98.00;;;;;;5110599;28;20491;-66
2021/07/16 00:19:23;;;;;;;1.20;1.10;;;17.00;98.00;;;;;;5111416;28;20527;-66
2021/07/16 00:21:51;;;;;;;1.37;1.20;;;16.90;98.00;;;;;;5111815;28;20489;-67
2021/07/16 00:24:18;;;;;;;1.13;1.10;;;17.00;98.00;;;;;;5113310;28;20483;-68
2021/07/16 00:26:46;;;;;;;1.20;1.00;;;17.00;98.00;;;;;;5114460;28;20945;-66
2021/07/16 00:29:13;;;;;;;1.17;1.07;;;17.10;98.00;;;;;;5114172;28;20534;-67
2021/07/16 00:31:41;;;;;;;1.20;1.10;;;17.10;98.00;;;;;;5115482;28;20463;-67
2021/07/16 00:34:08;;;;;;;1.23;1.20;;;17.10;98.00;;;;;;5114178;28;20961;-66
2021/07/16 00:36:35;;;;;;;1.20;1.20;;;17.10;98.00;;;;;;5115256;28;20459;-67
2021/07/16 00:39:04;;;;;;;1.20;1.20;;;17.20;98.00;;;;;;5115326;28;20462;-66
2021/07/16 00:41:32;;;;;;;1.30;1.17;;;17.30;98.00;;;;;;5113635;28;20515;-66
2021/07/16 00:43:59;;;;;;;1.47;1.40;;;17.30;98.00;;;;;;5114637;28;20595;-68
2021/07/16 00:46:26;;;;;;;1.40;1.30;;;17.20;98.00;;;;;;5114860;28;20871;-67
2021/07/16 00:48:53;;;;;;;1.27;1.10;;;17.10;98.00;;;;;;5114864;28;20934;-67
2021/07/16 00:51:20;;;;;;;1.20;1.10;;;17.10;98.00;;;;;;5114487;28;20953;-67
2021/07/16 00:53:47;;;;;;;1.20;1.13;;;17.10;98.00;;;;;;5114766;28;20451;-67
2021/07/16 00:56:15;;;;;;;1.30;1.10;;;17.20;98.00;;;;;;5114562;28;20487;-67
2021/07/16 00:58:42;;;;;;;1.20;1.17;;;17.30;98.00;;;;;;5114259;28;20494;-66
2021/07/16 01:01:09;;;;;;;1.20;1.20;;;17.30;98.00;;;;;;5114465;28;20948;-66
2021/07/16 01:03:37;;;;;;;1.60;1.30;;;17.40;98.00;;;;;;5114379;28;20537;-66
2021/07/16 01:06:05;;;;;;;1.50;1.40;;;17.50;98.00;;;;;;5114373;28;20516;-66
2021/07/16 01:08:32;;;;;;;1.20;1.03;;;17.40;98.00;;;;;;5114374;28;20454;-66
2021/07/16 01:11:02;;;;;;;1.20;1.20;;;17.30;98.00;;;;;;5113178;28;20443;-66
2021/07/16 01:13:31;;;;;;;1.20;1.20;;;17.20;98.00;;;;;;5114309;28;20491;-67
2021/07/16 01:15:58;;;;;;;1.30;1.10;;;17.20;98.00;;;;;;5113112;28;21173;-65
2021/07/16 01:18:26;;;;;;;1.40;1.17;;;17.10;98.00;;;;;;5114212;28;20536;-66
2021/07/16 01:20:54;;;;;;;1.20;1.20;;;17.10;98.00;;;;;;5114292;28;20455;-66
2021/07/16 01:23:24;;;;;;;1.10;1.07;;;17.10;98.00;;;;;;5113948;28;20523;-66
2021/07/16 01:25:52;;;;;;;1.20;1.10;;;17.30;98.00;;;;;;5113166;28;20792;-66
2021/07/16 01:28:19;;;;;;;1.80;1.43;;;17.30;98.00;;;;;;5114046;28;20448;-65
2021/07/16 01:30:48;;;;;;;1.20;1.20;;;17.40;98.00;;;;;;5114031;28;20451;-66
2021/07/16 01:33:17;;;;;;;1.10;1.00;;;17.40;98.00;;;;;;5113919;28;20470;-68
2021/07/16 01:35:44;;;;;;;1.77;1.20;;;17.40;98.00;;;;;;5112869;28;20477;-65
2021/07/16 01:38:11;;;;;;;1.20;1.10;;;17.40;98.00;;;;;;5112921;28;20513;-67
2021/07/16 01:40:39;;;;;;;1.50;1.27;;;17.40;98.00;;;;;;5113863;28;20459;-65
2021/07/16 01:43:08;;;;;;;1.40;1.30;;;17.40;98.00;;;;;;5113227;28;21003;-65
2021/07/16 01:45:38;;;;;;;1.73;1.20;;;17.40;98.00;;;;;;5112634;28;20497;-65
2021/07/16 01:48:06;;;;;;;1.10;1.00;;;17.30;98.00;;;;;;5113773;28;20462;-66
2021/07/16 01:50:36;;;;;;;4.20;1.37;;;17.30;98.00;;;;;;5113572;28;20489;-66
2021/07/16 01:53:03;;;;;;;1.37;1.17;;;17.20;98.00;;;;;;5113944;28;20469;-66
2021/07/16 01:55:33;;;;;;;1.20;1.10;;;17.20;98.00;;;;;;5113522;28;20451;-66
2021/07/16 01:58:04;;;;;;;2.50;1.50;;;17.20;98.00;;;;;;5113317;28;20482;-66
2021/07/16 02:00:34;;;;;;;3.20;1.40;;;17.20;98.00;;;;;;5112292;28;20459;-65
2021/07/16 02:03:03;;;;;;;2.20;1.73;;;17.10;98.00;;;;;;5112595;28;20508;-66
2021/07/16 02:05:31;;;;;;;1.50;1.40;;;17.00;98.00;;;;;;5112838;28;20458;-66
2021/07/16 02:08:00;;;;;;;2.80;1.70;;;17.00;98.00;;;;;;5111185;28;20497;-66
2021/07/16 02:10:28;;;;;;;1.20;1.10;;;17.00;98.00;;;;;;5112419;28;20455;-66
2021/07/16 02:12:55;;;;;;;2.07;1.30;;;17.00;98.00;;;;;;5113006;28;20461;-65
2021/07/16 02:15:26;;;;;;;1.40;1.23;;;17.00;98.00;;;;;;5113110;28;20469;-65
2021/07/16 02:17:54;;;;;;;1.63;1.20;;;17.00;98.00;;;;;;5113014;28;20458;-65
2021/07/16 02:20:24;;;;;;;1.50;1.30;;;17.00;98.00;;;;;;5111677;28;20455;-66
2021/07/16 02:22:51;;;;;;;1.43;1.37;;;17.10;98.00;;;;;;5095152;28;20894;-66
2021/07/16 02:25:19;;;;;;;1.40;1.10;;;17.10;98.00;;;;;;5112581;28;20518;-66
2021/07/16 02:27:48;;;;;;;1.50;1.20;;;17.10;98.00;;;;;;5112602;28;20538;-66
2021/07/16 02:30:18;;;;;;;2.60;1.70;;;17.10;98.00;;;;;;5112589;28;20465;-66
2021/07/16 02:32:47;;;;;;;1.57;1.33;;;17.10;98.00;;;;;;5113329;28;20471;-65
2021/07/16 02:35:15;;;;;;;1.63;1.53;;;17.10;98.00;;;;;;5112772;28;20455;-66
2021/07/16 02:37:43;;;;;;;1.77;1.37;;;17.10;98.00;;;;;;5112685;28;20502;-66
2021/07/16 02:40:12;;;;;;;1.27;1.23;;;17.10;98.00;;;;;;5111536;28;20942;-66
2021/07/16 02:42:40;;;;;;;1.37;1.23;;;17.10;98.00;;;;;;5112678;28;20489;-65
2021/07/16 02:45:09;;;;;;;2.00;1.63;;;17.10;98.00;;;;;;5111181;28;20611;-65
2021/07/16 02:47:37;;;;;;;3.47;1.40;;;17.00;98.00;;;;;;5112278;28;20497;-65
2021/07/16 02:50:07;;;;;;;1.60;1.20;;;17.10;98.00;;;;;;5112560;28;20455;-66
2021/07/16 02:52:34;;;;;;;2.13;1.50;;;17.10;98.00;;;;;;5112515;28;20455;-65
2021/07/16 02:55:01;;;;;;;1.70;1.43;;;17.10;98.00;;;;;;5112756;28;20466;-65
2021/07/16 02:57:28;;;;;;;1.83;1.47;;;17.20;98.00;;;;;;5112534;28;20459;-66
2021/07/16 02:59:55;;;;;;;2.67;1.50;;;17.20;98.00;;;;;;5111885;28;21084;-65
2021/07/16 03:02:22;;;;;;;1.47;1.20;;;17.20;98.00;;;;;;5112281;28;20493;-66
2021/07/16 03:04:49;;;;;;;1.30;1.10;;;17.30;98.00;;;;;;5112453;28;20519;-66
2021/07/16 03:07:18;;;;;;;1.67;1.20;;;17.30;98.00;;;;;;5112532;28;20545;-65
2021/07/16 03:09:45;;;;;;;2.00;1.73;;;17.20;98.00;;;;;;5112360;28;20482;-65
2021/07/16 03:12:12;;;;;;;2.47;1.43;;;17.20;98.00;;;;;;5112326;28;20507;-66
2021/07/16 03:14:41;;;;;;;1.27;1.20;;;17.20;98.00;;;;;;5112435;28;20536;-66
2021/07/16 03:17:09;;;;;;;3.70;1.40;;;17.10;98.00;;;;;;5110871;28;20535;-65
2021/07/16 03:19:36;;;;;;;1.83;1.40;;;17.20;98.00;;;;;;5112348;28;20459;-65
2021/07/16 03:22:03;;;;;;;1.40;1.27;;;17.10;98.00;;;;;;5112351;28;20894;-65
2021/07/16 03:24:32;;;;;;;1.97;1.30;;;17.00;98.00;;;;;;5111802;28;20507;-65
2021/07/16 03:27:03;;;;;;;1.40;1.30;;;17.00;98.00;;;;;;5112128;28;20452;-65
2021/07/16 03:29:30;;;;;;;2.93;2.03;;;17.10;98.00;;;;;;5111686;28;20488;-66
2021/07/16 03:31:58;;;;;;;1.30;1.13;;;17.30;98.00;;;;;;5110664;28;20479;-66
2021/07/16 03:34:25;;;;;;;1.70;1.50;;;17.20;98.00;;;;;;5112016;28;21028;-66
2021/07/16 03:36:52;;;;;;;2.17;1.67;;;17.10;98.00;;;;;;5112128;28;20967;-65
2021/07/16 03:39:19;;;;;;;1.67;1.50;;;17.10;98.00;;;;;;5111910;28;20862;-66
2021/07/16 03:41:47;;;;;;;5.17;1.90;;;17.00;98.00;;;;;;5110675;28;20463;-65
2021/07/16 03:44:14;;;;;;;2.27;1.80;;;17.00;98.00;;;;;;5111995;28;20479;-66
2021/07/16 03:46:41;;;;;;;1.97;1.50;;;17.10;98.00;;;;;;5111708;28;20953;-66
2021/07/16 03:49:08;;;;;;;2.40;1.33;;;17.20;98.00;;;;;;5111852;28;20558;-66
2021/07/16 03:51:36;;;;;;;1.60;1.50;;;17.20;98.00;;;;;;5111894;28;20450;-66
2021/07/16 03:54:04;;;;;;;1.50;1.40;;;17.10;98.00;;;;;;5111798;28;20500;-65
2021/07/16 03:56:32;;;;;;;1.47;1.10;;;17.20;98.00;;;;;;5111874;28;20497;-65
2021/07/16 03:59:00;;;;;;;1.20;1.10;;;17.20;98.00;;;;;;5113160;28;20881;-65
2021/07/16 04:01:27;;;;;;;1.93;1.73;;;17.30;98.00;;;;;;5115829;28;20494;-67
2021/07/16 04:03:54;;;;;;;2.70;1.40;;;17.40;98.00;;;;;;5115469;28;20877;-65
2021/07/16 04:06:21;;;;;;;2.17;1.43;;;17.30;98.00;;;;;;5115721;28;20547;-66
2021/07/16 04:08:50;;;;;;;3.30;1.53;;;17.40;98.00;;;;;;5115510;28;20498;-65
2021/07/16 04:11:17;;;;;;;1.20;1.20;;;17.40;98.00;;;;;;5115648;28;20486;-65
2021/07/16 04:13:44;;;;;;;1.67;1.60;;;17.40;98.00;;;;;;5115444;28;20459;-65
2021/07/16 04:16:12;;;;;;;1.80;1.70;;;17.40;98.00;;;;;;5115536;28;21014;-65
2021/07/16 04:18:39;;;;;;;2.17;1.57;;;17.40;98.00;;;;;;5115475;28;20515;-65
2021/07/16 04:21:09;;;;;;;1.77;1.47;;;17.30;98.00;;;;;;5114231;28;20941;-66
2021/07/16 04:23:36;;;;;;;2.17;1.30;;;17.30;98.00;;;;;;5115098;28;20474;-65
2021/07/16 04:26:03;;;;;;;2.80;2.07;;;17.20;98.00;;;;;;5115358;28;21016;-66
2021/07/16 04:28:30;;;;;;;1.60;1.37;;;17.30;98.00;;;;;;5115332;28;20459;-66
2021/07/16 04:30:58;;;;;;;1.50;1.50;;;17.40;98.00;;;;;;5115238;28;20982;-66
2021/07/16 04:33:29;;;;;;;2.73;1.60;;;17.40;98.00;;;;;;5115615;28;20568;-66
2021/07/16 04:35:55;;;;;;;1.50;1.37;;;17.40;98.00;;;;;;5115197;28;20497;-66
2021/07/16 04:38:23;;;;;;;2.00;1.60;;;17.40;98.00;;;;;;5115108;28;20953;-66
2021/07/16 04:40:50;;;;;;;2.23;1.43;;;17.40;98.00;;;;;;5115119;28;20527;-66
2021/07/16 04:43:16;;;;;;;1.93;1.80;;;17.40;98.00;;;;;;5114765;28;20487;-66
2021/07/16 04:45:43;;;;;;;3.13;1.83;;;17.40;98.00;;;;;;5114838;28;20937;-65
2021/07/16 04:48:11;;;;;;;1.50;1.40;;;17.30;98.00;;;;;;5114567;28;20511;-65
2021/07/16 04:50:39;;;;;;;1.20;1.10;;;17.40;98.00;;;;;;5114305;28;21016;-66
2021/07/16 04:53:06;;;;;;;3.20;1.57;;;17.50;98.00;;;;;;5114757;28;20896;-65
2021/07/16 04:55:36;;;;;;;1.43;1.30;;;17.60;98.00;;;;;;5114703;28;20475;-65
2021/07/16 04:58:03;;;;;;;2.27;1.30;;;17.70;98.00;;;;;;5113693;28;20535;-66
2021/07/16 05:00:30;;;;;;;1.53;1.50;;;17.70;98.00;;;;;;5114659;28;20783;-66
2021/07/16 05:02:57;;;;;;;2.53;1.60;;;17.70;98.00;;;;;;5114779;28;20470;-65
2021/07/16 05:05:24;;;;;;;1.10;1.00;;;17.70;98.00;;;;;;5114369;28;21100;-66
2021/07/16 05:07:53;;;;;;;1.20;1.20;;;17.70;98.00;;;;;;5114361;28;20465;-65
2021/07/16 05:10:20;;;;;;;1.83;1.60;;;17.50;98.00;;;;;;5114012;28;20824;-66
2021/07/16 05:12:47;;;;;;;1.53;1.47;;;17.50;98.00;;;;;;5114396;28;20515;-65
2021/07/16 05:15:14;;;;;;;2.03;1.63;;;17.50;98.00;;;;;;5114233;28;20487;-65
2021/07/16 05:17:41;;;;;;;1.77;1.30;;;17.50;98.00;;;;;;5114243;28;20511;-65
2021/07/16 05:20:16;;;;;;;1.70;1.60;;;17.50;98.00;;;;;;5114228;28;20463;-65
2021/07/16 05:22:43;;;;;;;1.77;1.67;;;17.60;98.00;;;;;;5114127;28;20455;-66
2021/07/16 05:25:12;;;;;;;1.77;1.67;;;17.50;98.00;;;;;;5113944;28;20483;-66
2021/07/16 05:27:39;;;;;;;1.20;1.20;;;17.50;98.00;;;;;;5114150;28;20488;-65
2021/07/16 05:30:08;;;;;;;1.57;1.27;;;17.50;98.00;;;;;;5113023;28;20891;-66
2021/07/16 05:32:35;;;;;;;1.47;1.33;;;17.50;98.00;;;;;;5113954;28;20490;-66
2021/07/16 05:35:03;;;;;;;1.33;1.30;;;17.60;98.00;;;;;;5112642;28;20451;-67
2021/07/16 05:37:30;;;;;;;1.57;1.47;;;17.60;98.00;;;;;;5113953;28;20447;-66
2021/07/16 05:39:57;;;;;;;1.37;1.30;;;17.60;98.00;;;;;;5113838;28;20499;-67
2021/07/16 05:42:26;;;;;;;1.57;1.23;;;17.70;98.00;;;;;;5113881;28;20458;-65
2021/07/16 05:44:53;;;;;;;1.40;1.30;;;17.70;98.00;;;;;;5113682;28;20552;-66
2021/07/16 05:47:21;;;;;;;2.23;1.43;;;17.80;98.00;;;;;;5113883;28;20447;-67
2021/07/16 05:49:51;;;;;;;2.03;1.43;;;17.90;98.00;;;;;;5113706;28;20459;-65
2021/07/16 05:52:18;;;;;;;1.20;1.17;;;18.00;98.00;;;;;;5113766;28;20451;-66
2021/07/16 05:54:45;;;;;;;1.43;1.40;;;18.00;98.00;;;;;;5113783;28;20482;-68
2021/07/16 05:57:12;;;;;;;1.63;1.60;;;17.90;98.00;;;;;;5113392;28;20498;-65
2021/07/16 05:59:41;;;;;;;1.70;1.30;;;17.90;98.00;;;;;;5112580;28;20482;-67
2021/07/16 06:02:09;;;;;;;2.33;1.73;;;18.00;98.00;;;;;;5113483;28;20512;-67
2021/07/16 06:04:36;;;;;;;1.53;1.40;;;18.00;98.00;;;;;;5113256;28;20609;-66
2021/07/16 06:07:04;;;;;;;2.07;1.70;;;17.90;98.00;;;;;;5113448;28;20491;-66
2021/07/16 06:09:32;;;;;;;2.83;2.20;;;18.00;98.00;;;;;;5113027;28;20504;-66
2021/07/16 06:11:59;;;;;;;2.70;1.60;;;17.90;98.00;;;;;;5113116;28;20873;-66
2021/07/16 06:14:26;;;;;;;1.60;1.40;;;17.90;98.00;;;;;;5113157;28;20494;-66
2021/07/16 06:16:54;;;;;;;1.60;1.50;;;17.90;98.00;;;;;;5113338;28;20519;-66
2021/07/16 06:19:21;;;;;;;2.07;1.70;;;17.80;98.00;;;;;;5112681;28;20478;-66
2021/07/16 06:21:48;;;;;;;1.50;1.40;;;17.90;98.00;;;;;;5112244;28;20447;-66
2021/07/16 06:24:15;;;;;;;2.03;1.50;;;17.90;98.00;;;;;;5112847;28;20530;-66
2021/07/16 06:26:43;;;;;;;2.63;1.80;;;17.90;98.00;;;;;;5112895;28;20888;-66
2021/07/16 06:29:10;;;;;;;1.40;1.40;;;17.90;98.00;;;;;;5112748;28;20482;-67
2021/07/16 06:31:38;;;;;;;1.67;1.23;;;17.80;98.00;;;;;;5112854;28;20866;-66
2021/07/16 06:34:06;;;;;;;1.20;1.20;;;17.90;98.00;;;;;;5094636;28;20516;-67
2021/07/16 06:36:34;;;;;;;1.50;1.40;;;18.10;98.00;;;;;;5112549;28;20512;-66
2021/07/16 06:39:01;;;;;;;1.97;1.90;;;18.30;98.00;;;;;;5112752;28;21006;-66
2021/07/16 06:41:28;;;;;;;1.33;1.30;;;18.30;98.00;;;;;;5112586;28;20521;-66
2021/07/16 06:43:55;;;;;;;1.67;1.40;;;18.30;98.00;;;;;;5112615;28;20465;-67
2021/07/16 06:46:22;;;;;;;1.40;1.30;;;18.30;98.00;;;;;;5111038;28;20532;-67
2021/07/16 06:48:52;;;;;;;1.30;1.30;;;18.30;98.00;;;;;;5112550;28;20853;-66
2021/07/16 06:51:20;;;;;;;1.50;1.40;;;18.30;98.00;;;;;;5112470;28;20450;-67
2021/07/16 06:53:48;;;;;;;1.20;1.20;;;18.30;98.00;;;;;;5112464;28;20549;-67
2021/07/16 06:56:15;;;;;;;1.27;1.23;;;18.40;98.00;;;;;;5112502;28;20451;-66
2021/07/16 06:58:42;;;;;;;1.20;1.17;;;18.40;98.00;;;;;;5112556;28;20524;-66
2021/07/16 07:01:09;;;;;;;1.30;1.10;;;18.50;98.00;;;;;;5112474;28;20871;-66
2021/07/16 07:03:36;;;;;;;1.93;1.50;;;18.70;98.00;;;;;;5112474;28;20463;-67
2021/07/16 07:06:04;;;;;;;1.40;1.40;;;18.80;98.00;;;;;;5112195;28;20515;-66
2021/07/16 07:08:34;;;;;;;1.80;1.43;;;18.90;98.00;;;;;;5112544;28;20458;-66
2021/07/16 07:11:00;;;;;;;1.57;1.37;;;18.90;98.00;;;;;;5112418;28;20455;-66
2021/07/16 07:13:28;;;;;;;1.80;1.47;;;18.80;98.00;;;;;;5112496;28;20998;-66
2021/07/16 07:15:55;;;;;;;2.07;1.67;;;18.80;98.00;;;;;;5111235;28;20455;-66
2021/07/16 07:18:22;;;;;;;2.03;1.83;;;19.00;98.00;;;;;;5112210;28;20497;-67
2021/07/16 07:20:49;;;;;;;1.50;1.13;;;19.00;98.00;;;;;;5112219;28;20527;-65
2021/07/16 07:23:16;;;;;;;1.60;1.60;;;19.10;98.00;;;;;;5112004;28;20507;-66
2021/07/16 07:25:44;;;;;;;1.90;1.63;;;19.10;98.00;;;;;;5111790;28;20546;-64
2021/07/16 07:28:11;;;;;;;1.60;1.50;;;19.20;98.00;;;;;;5091105;28;20536;-66
2021/07/16 07:30:38;;;;;;;1.30;1.20;;;19.40;98.00;;;;;;5097315;28;20464;-67
2021/07/16 07:33:06;;;;;;;2.37;1.60;;;19.50;98.00;;;;;;5108898;28;20454;-69
2021/07/16 07:35:34;;;;;;;4.30;1.60;;;19.50;98.00;;;;;;5100237;28;20478;-67
2021/07/16 07:38:03;;;;;;;1.20;1.10;;;19.50;98.00;;;;;;5094285;28;20953;-66
2021/07/16 07:40:30;;;;;;;1.33;1.10;;;19.80;98.00;;;;;;5099843;28;20836;-68
2021/07/16 07:43:02;;;;;;;1.20;1.10;;;20.10;98.00;;;;;;5106475;28;20451;-67
2021/07/16 07:45:29;;;;;;;1.40;1.30;;;20.10;98.00;;;;;;5099898;28;20532;-66
2021/07/16 07:47:56;;;;;;;2.00;1.43;;;20.40;98.00;;;;;;5106073;28;20875;-66
2021/07/16 07:50:24;;;;;;;2.10;1.80;;;20.40;98.00;;;;;;5098140;28;20536;-67
2021/07/16 07:52:52;;;;;;;1.80;1.57;;;20.40;98.00;;;;;;5097662;28;20491;-68
2021/07/16 07:55:22;;;;;;;1.93;1.60;;;20.30;98.00;;;;;;5077143;28;20488;-66
2021/07/16 07:57:51;;;;;;;1.57;1.50;;;20.40;98.00;;;;;;5090052;28;20464;-65
2021/07/16 08:00:22;;;;;;;1.47;1.43;;;20.50;98.00;;;;;;5101881;28;20448;-66
2021/07/16 08:02:49;;;;;;;1.53;1.47;;;20.70;98.00;;;;;;5102736;28;20516;-67
2021/07/16 08:05:16;;;;;;;2.17;1.80;;;20.70;98.00;;;;;;5107661;28;20864;-66
2021/07/16 08:07:44;;;;;;;1.43;1.30;;;20.80;98.00;;;;;;5101504;28;20458;-65
2021/07/16 08:10:13;;;;;;;1.37;1.33;;;20.80;98.00;;;;;;5097678;28;20455;-66
2021/07/16 08:12:40;;;;;;;1.90;1.80;;;20.70;98.00;;;;;;5094181;28;20545;-66
2021/07/16 08:15:10;;;;;;;1.50;1.40;;;20.70;98.00;;;;;;5103134;28;20456;-66
2021/07/16 08:17:40;;;;;;;1.60;1.37;;;20.70;98.00;;;;;;5093868;28;20489;-66
2021/07/16 08:20:09;;;;;;;1.93;1.77;;;20.70;98.00;;;;;;5105882;28;20470;-65
2021/07/16 08:22:39;;;;;;;1.20;1.20;;;20.80;98.00;;;;;;5106753;28;20452;-67
2021/07/16 08:25:07;;;;;;;1.40;1.30;;;20.70;98.00;;;;;;5093147;28;20459;-65
2021/07/16 08:27:34;;;;;;;1.60;1.40;;;20.80;98.00;;;;;;5102692;28;20517;-66
2021/07/16 08:30:02;;;;;;;1.80;1.73;;;20.70;98.00;;;;;;5102392;28;20871;-67
2021/07/16 08:32:29;;;;;;;1.73;1.33;;;20.70;98.00;;;;;;5093547;28;20502;-67
2021/07/16 08:34:57;;;;;;;2.47;1.40;;;20.60;98.00;;;;;;5102556;28;20527;-66
2021/07/16 08:37:24;;;;;;;1.40;1.20;;;20.60;98.00;;;;;;5106465;28;20893;-67
2021/07/16 08:39:51;;;;;;;2.23;1.50;;;20.80;98.00;;;;;;5093883;28;20541;-67
2021/07/16 08:42:19;;;;;;;2.03;1.60;;;20.80;98.00;;;;;;5093703;28;20448;-66
2021/07/16 08:44:47;;;;;;;1.43;1.37;;;20.80;98.00;;;;;;5091866;28;20483;-64
2021/07/16 08:47:17;;;;;;;2.23;1.50;;;20.80;98.00;;;;;;5105104;28;20582;-66
2021/07/16 08:49:44;;;;;;;2.03;1.53;;;21.10;98.00;;;;;;5099477;28;20548;-67
2021/07/16 08:52:13;;;;;;;1.30;1.30;;;21.30;98.00;;;;;;5098437;28;20556;-66
2021/07/16 08:54:45;;;;;;;1.97;1.50;;;21.60;98.00;;;;;;5101343;28;21002;-66
2021/07/16 08:57:15;;;;;;;3.23;1.70;;;21.60;98.00;;;;;;5097366;28;20451;-66
2021/07/16 08:59:42;;;;;;;1.67;1.40;;;21.50;98.00;;;;;;5104987;28;20459;-66
2021/07/16 09:02:10;;;;;;;1.43;1.43;;;21.40;98.00;;;;;;5104190;28;20494;-65
2021/07/16 09:04:39;;;;;;;1.37;1.30;;;21.40;98.00;;;;;;5097527;28;20457;-67
2021/07/16 09:07:12;;;;;;;2.67;1.80;;;21.50;98.00;;;;;;5094844;28;20521;-65
2021/07/16 09:09:40;;;;;;;1.20;1.10;;;21.50;98.00;;;;;;5108605;28;20543;-65
2021/07/16 09:12:11;;;;;;;1.47;1.27;;;21.50;98.00;;;;;;5102310;28;20444;-68
2021/07/16 09:14:39;;;;;;;1.20;1.20;;;21.40;98.00;;;;;;5081906;28;20513;-66
2021/07/16 09:17:12;;;;;;;1.30;1.27;;;21.40;98.00;;;;;;5095294;28;20504;-66
2021/07/16 09:19:41;;;;;;;1.20;1.10;;;21.30;98.00;;;;;;5094112;28;20463;-66
2021/07/16 09:22:11;;;;;;;1.80;1.50;;;21.30;98.00;;;;;;5099461;28;20505;-67
2021/07/16 09:24:41;;;;;;;1.50;1.30;;;21.30;98.00;;;;;;5108826;28;21291;-65
2021/07/16 09:27:32;;;;;;;1.40;1.23;;;21.50;98.00;;;;;;5101941;28;20529;-65
2021/07/16 09:30:18;;;;;;;1.77;1.60;;;21.60;98.00;;;;;;5089882;28;20860;-66
2021/07/16 09:32:47;;;;;;;1.40;1.30;;;22.00;98.00;;;;;;5107031;28;21000;-66
2021/07/16 09:35:20;;;;;;;1.63;1.50;;;22.30;98.00;;;;;;5101029;28;20464;-66
2021/07/16 09:37:56;;;;;;;1.63;1.50;;;22.40;98.00;;;;;;5100753;28;20490;-66
2021/07/16 09:40:27;;;;;;;1.30;1.27;;;22.60;98.00;;;;;;5105183;28;20964;-66
2021/07/16 09:43:06;;;;;;;1.90;1.40;;;22.60;98.00;;;;;;5095558;28;20521;-66
2021/07/16 09:45:35;;;;;;;1.47;1.37;;;22.50;98.00;;;;;;5107545;28;20458;-66
2021/07/16 09:48:21;;;;;;;1.87;1.27;;;22.20;98.00;;;;;;5093286;28;20456;-66
2021/07/16 09:51:10;;;;;;;1.40;1.40;;;22.20;98.00;;;;;;5093248;28;20513;-66
2021/07/16 09:53:41;;;;;;;1.80;1.50;;;22.20;98.00;;;;;;5083046;28;20465;-66
2021/07/16 09:56:14;;;;;;;3.00;1.70;;;22.30;98.00;;;;;;5091584;28;20942;-67
2021/07/16 09:58:42;;;;;;;1.70;1.40;;;22.40;98.00;;;;;;5091885;28;20524;-68
2021/07/16 10:01:10;;;;;;;1.73;1.57;;;22.50;98.00;;;;;;5099305;28;20503;-66
2021/07/16 10:03:38;;;;;;;1.33;1.30;;;22.80;98.00;;;;;;5091427;28;20470;-69
2021/07/16 10:06:06;;;;;;;1.70;1.60;;;22.90;98.00;;;;;;5100477;28;20491;-67
2021/07/16 10:08:34;;;;;;;1.47;1.33;;;22.90;98.00;;;;;;5102350;28;20496;-67
2021/07/16 10:11:08;;;;;;;1.30;1.30;;;23.00;98.00;;;;;;5098335;28;20523;-66
2021/07/16 10:13:40;;;;;;;1.20;1.17;;;23.30;98.00;;;;;;5090469;28;20553;-67
2021/07/16 10:16:07;;;;;;;1.40;1.40;;;23.40;98.00;;;;;;5103297;28;20512;-68
2021/07/16 10:18:35;;;;;;;1.40;1.30;;;23.60;98.00;;;;;;5104624;28;20865;-67
2021/07/16 10:21:02;;;;;;;1.40;1.30;;;23.80;98.00;;;;;;5082982;28;20483;-66
2021/07/16 10:23:29;;;;;;;1.37;1.23;;;23.90;98.00;;;;;;5102257;28;20542;-68
2021/07/16 10:25:56;;;;;;;1.50;1.30;;;24.10;98.00;;;;;;5105069;28;20487;-68
2021/07/16 10:28:40;;;;;;;1.20;1.20;;;24.10;98.00;;;;;;5095679;28;20456;-67
2021/07/16 10:31:41;;;;;;;1.40;1.30;;;24.10;98.00;;;;;;5096183;28;20482;-65
2021/07/16 10:34:33;;;;;;;1.20;1.10;;;24.20;98.00;;;;;;5077898;28;20528;-68
2021/07/16 10:37:02;;;;;;;2.43;1.57;;;24.30;98.00;;;;;;5100226;28;20463;-68
2021/07/16 10:39:49;;;;;;;1.50;1.40;;;24.40;98.00;;;;;;5107621;28;20467;-68
2021/07/16 10:42:46;;;;;;;1.80;1.60;;;24.40;98.00;;;;;;5099053;28;20463;-68
2021/07/16 10:45:14;;;;;;;2.03;1.40;;;24.50;98.00;;;;;;5076608;28;20513;-67
2021/07/16 10:47:46;;;;;;;1.30;1.20;;;24.40;98.00;;;;;;5090960;28;20484;-67
2021/07/16 10:50:15;;;;;;;1.30;1.13;;;24.50;98.00;;;;;;5088730;28;20483;-70
2021/07/16 10:52:45;;;;;;;1.40;1.30;;;24.60;98.00;;;;;;5090430;28;20939;-67
2021/07/16 10:55:14;;;;;;;1.33;1.30;;;24.90;98.00;;;;;;5107436;28;20534;-69
2021/07/16 10:57:42;;;;;;;1.53;1.40;;;25.00;98.00;;;;;;5090838;28;20455;-67
2021/07/16 11:00:14;;;;;;;1.63;1.43;;;25.10;98.00;;;;;;5097919;28;20564;-68
2021/07/16 11:02:47;;;;;;;1.30;1.23;;;25.00;98.00;;;;;;5090240;28;20455;-67
2021/07/16 11:05:52;;;;;;;1.33;1.20;;;24.80;98.00;;;;;;5098798;28;20565;-69
2021/07/16 11:08:44;;;;;;;1.60;1.50;;;24.70;98.00;;;;;;5090874;28;20506;-67
2021/07/16 11:11:13;;;;;;;1.53;1.47;;;25.00;98.00;;;;;;5089256;28;20513;-69
2021/07/16 11:13:44;;;;;;;2.47;1.47;;;24.90;98.00;;;;;;5094392;28;20451;-68
2021/07/16 11:16:44;;;;;;;3.30;1.37;;;24.60;98.00;;;;;;5111855;28;20533;-68
2021/07/16 11:19:26;;;;;;;1.30;1.20;;;24.30;98.00;;;;;;5112253;28;20443;-68
2021/07/16 11:22:05;;;;;;;1.90;1.40;;;24.00;98.00;;;;;;5111961;28;20454;-68
2021/07/16 11:24:35;;;;;;;1.67;1.43;;;24.00;98.00;;;;;;5110722;28;20462;-67
2021/07/16 11:27:15;;;;;;;1.30;1.20;;;23.90;98.00;;;;;;5112201;28;20548;-68
2021/07/16 11:29:44;;;;;;;1.83;1.47;;;23.70;98.00;;;;;;5110658;28;20459;-69
2021/07/16 11:32:16;;;;;;;1.50;1.40;;;23.60;98.00;;;;;;5112065;28;21059;-68
2021/07/16 11:34:50;;;;;;;1.63;1.30;;;23.50;98.00;;;;;;5111790;28;21025;-67
2021/07/16 11:37:30;;;;;;;1.43;1.20;;;23.50;98.00;;;;;;5112003;28;20451;-70
2021/07/16 11:40:03;;;;;;;1.80;1.40;;;23.40;98.00;;;;;;5111867;28;20459;-68
2021/07/16 11:42:31;;;;;;;1.40;1.40;;;23.30;98.00;;;;;;5111909;28;20451;-67
2021/07/16 11:44:58;;;;;;;1.63;1.53;;;23.30;98.00;;;;;;5110513;28;20454;-68
2021/07/16 11:47:26;;;;;;;1.30;1.30;;;23.10;98.00;;;;;;5110471;28;21020;-68
2021/07/16 11:49:57;;;;;;;1.43;1.37;;;23.00;98.00;;;;;;5110430;28;20483;-67
2021/07/16 11:52:26;;;;;;;1.30;1.20;;;23.00;98.00;;;;;;5111870;28;20548;-67
2021/07/16 11:54:54;;;;;;;1.67;1.40;;;22.90;98.00;;;;;;5111904;28;20802;-66
2021/07/16 11:57:23;;;;;;;2.00;1.43;;;22.80;98.00;;;;;;5111936;28;20450;-68
2021/07/16 11:59:52;;;;;;;2.07;1.33;;;22.70;98.00;;;;;;5111542;28;20493;-66
2021/07/16 12:02:22;;;;;;;1.20;1.20;;;22.70;98.00;;;;;;5112087;28;20487;-67
2021/07/16 12:04:50;;;;;;;3.50;1.43;;;22.80;98.00;;;;;;5111733;28;20483;-67
2021/07/16 12:07:19;;;;;;;1.57;1.30;;;22.90;98.00;;;;;;5111684;28;20949;-67
2021/07/16 12:09:47;;;;;;;1.97;1.37;;;22.90;98.00;;;;;;5110984;28;20579;-67
2021/07/16 12:12:16;;;;;;;1.93;1.40;;;23.10;98.00;;;;;;5111888;28;20867;-67
2021/07/16 12:14:55;;;;;;;1.50;1.40;;;23.20;98.00;;;;;;5105299;28;20817;-68
2021/07/16 12:17:24;;;;;;;1.20;1.20;;;23.40;98.00;;;;;;5097775;28;20455;-66
2021/07/16 12:19:52;;;;;;;1.70;1.30;;;23.70;98.00;;;;;;5091657;28;20506;-66
2021/07/16 12:22:31;;;;;;;1.30;1.30;;;23.90;98.00;;;;;;5093646;28;21034;-67
2021/07/16 12:24:59;;;;;;;1.30;1.30;;;24.50;98.00;;;;;;5101371;28;20471;-68
2021/07/16 12:27:26;;;;;;;1.30;1.30;;;24.60;98.00;;;;;;5102796;28;20494;-67
2021/07/16 12:29:58;;;;;;;1.40;1.20;;;24.50;98.00;;;;;;5110281;28;20451;-67
2021/07/16 12:32:36;;;;;;;1.30;1.20;;;24.30;98.00;;;;;;5102177;28;20524;-69
2021/07/16 12:35:14;;;;;;;1.60;1.27;;;24.20;98.00;;;;;;5074762;28;20955;-66
2021/07/16 12:37:43;;;;;;;1.40;1.40;;;24.10;98.00;;;;;;5108946;28;20498;-66
2021/07/16 12:40:12;;;;;;;1.30;1.30;;;24.10;98.00;;;;;;5100486;28;20451;-66
2021/07/16 12:42:40;;;;;;;1.53;1.40;;;24.10;98.00;;;;;;5102477;28;20462;-67
2021/07/16 12:45:09;;;;;;;1.30;1.30;;;24.10;98.00;;;;;;5093623;28;20466;-68
2021/07/16 12:47:47;;;;;;;1.50;1.30;;;24.40;98.00;;;;;;5102948;28;20495;-67
2021/07/16 12:50:19;;;;;;;1.40;1.30;;;24.70;98.00;;;;;;5100744;28;20455;-67
2021/07/16 12:52:55;;;;;;;1.37;1.30;;;25.00;98.00;;;;;;5092152;28;20479;-68
2021/07/16 12:55:24;;;;;;;1.60;1.40;;;25.30;98.00;;;;;;5097964;28;20459;-67
2021/07/16 12:58:01;;;;;;;1.30;1.23;;;25.80;97.20;;;;;;5096823;28;20517;-66
2021/07/16 13:00:28;;;;;;;1.30;1.20;;;26.40;94.90;;;;;;5101536;28;20611;-67